createdAt,value
2017-08-29T00:00:36.661Z,7.10
2017-08-29T00:03:04.964Z,16.60
2017-08-29T00:05:33.339Z,15.43
2017-08-29T00:08:02.022Z,20.87
2017-08-29T00:10:30.358Z,10.57
2017-08-29T00:12:58.657Z,12.10
2017-08-29T00:15:27.652Z,9.07
2017-08-29T00:17:55.980Z,8.77
2017-08-29T00:20:24.335Z,9.00
2017-08-29T00:22:52.851Z,9.47
2017-08-29T00:25:21.185Z,12.47
2017-08-29T00:27:49.512Z,9.40
2017-08-29T00:30:18.021Z,11.17
2017-08-29T00:32:46.342Z,10.67
2017-08-29T00:35:15.420Z,21.50
2017-08-29T00:37:44.745Z,15.97
2017-08-29T00:40:13.077Z,10.00
2017-08-29T00:42:41.429Z,6.20
2017-08-29T00:45:10.135Z,22.63
2017-08-29T00:47:38.503Z,23.63
2017-08-29T00:50:06.848Z,17.30
2017-08-29T00:52:35.446Z,8.83
2017-08-29T00:55:03.782Z,8.17
2017-08-29T00:57:32.122Z,7.07
2017-08-29T01:00:00.696Z,11.00
2017-08-29T01:02:29.029Z,9.03
2017-08-29T01:04:57.629Z,11.93
2017-08-29T01:07:27.156Z,9.67
2017-08-29T01:09:55.502Z,8.20
2017-08-29T01:12:23.887Z,14.10
2017-08-29T01:14:52.769Z,6.20
2017-08-29T01:17:21.134Z,11.70
2017-08-29T01:19:49.498Z,6.00
2017-08-29T01:22:17.918Z,8.07
2017-08-29T01:24:47.012Z,8.53
2017-08-29T01:27:15.372Z,12.30
2017-08-29T01:29:44.162Z,11.00
2017-08-29T01:32:12.517Z,16.80
2017-08-29T01:34:40.870Z,5.80
2017-08-29T01:37:09.656Z,13.90
2017-08-29T01:39:38.173Z,11.03
2017-08-29T01:42:06.581Z,6.43
2017-08-29T01:44:35.158Z,10.80
2017-08-29T01:47:03.586Z,4.63
2017-08-29T01:49:31.950Z,9.93
2017-08-29T01:52:01.257Z,9.03
2017-08-29T01:54:29.625Z,6.00
2017-08-29T01:56:58.015Z,7.70
2017-08-29T01:59:26.833Z,8.97
2017-08-29T02:01:55.190Z,5.30
2017-08-29T02:04:23.611Z,6.70
2017-08-29T02:06:53.431Z,5.40
2017-08-29T02:09:22.157Z,6.60
2017-08-29T02:11:50.544Z,7.20
2017-08-29T02:14:19.304Z,4.90
2017-08-29T02:16:47.660Z,3.53
2017-08-29T02:19:15.998Z,6.43
2017-08-29T02:21:44.510Z,5.10
2017-08-29T02:24:12.820Z,5.33
2017-08-29T02:26:41.495Z,7.93
2017-08-29T02:29:10.157Z,7.40
2017-08-29T02:31:38.471Z,4.83
2017-08-29T02:34:06.790Z,6.43
2017-08-29T02:36:35.509Z,9.00
2017-08-29T02:39:03.890Z,5.37
2017-08-29T02:41:32.192Z,4.80
2017-08-29T02:44:00.799Z,8.40
2017-08-29T02:46:30.148Z,7.57
2017-08-29T02:48:58.485Z,6.43
2017-08-29T02:51:26.863Z,4.50
2017-08-29T02:53:55.177Z,7.77
2017-08-29T02:56:23.514Z,5.03
2017-08-29T02:58:52.650Z,6.60
2017-08-29T03:01:21.201Z,7.87
2017-08-29T03:03:49.578Z,4.17
2017-08-29T03:06:18.195Z,4.30
2017-08-29T03:08:46.551Z,7.40
2017-08-29T03:11:14.905Z,10.70
2017-08-29T03:13:43.617Z,4.80
2017-08-29T03:16:11.942Z,4.70
2017-08-29T03:18:40.301Z,6.40
2017-08-29T03:21:08.893Z,7.20
2017-08-29T03:23:37.209Z,7.50
2017-08-29T03:26:05.514Z,5.20
2017-08-29T03:28:33.912Z,10.30
2017-08-29T03:31:02.239Z,5.40
2017-08-29T03:33:30.589Z,8.13
2017-08-29T03:35:59.166Z,4.70
2017-08-29T03:38:27.526Z,8.53
2017-08-29T03:40:55.886Z,4.07
2017-08-29T03:43:24.597Z,5.37
2017-08-29T03:45:53.945Z,3.50
2017-08-29T03:48:22.325Z,4.77
2017-08-29T03:50:52.449Z,5.10
2017-08-29T03:53:20.903Z,10.30
2017-08-29T03:55:49.225Z,7.13
2017-08-29T03:58:17.725Z,4.40
2017-08-29T04:00:46.605Z,4.10
2017-08-29T04:03:14.929Z,6.33
2017-08-29T04:05:43.269Z,6.80
2017-08-29T04:08:11.566Z,5.80
2017-08-29T04:10:39.911Z,6.10
2017-08-29T04:13:08.757Z,5.20
2017-08-29T04:15:37.081Z,4.07
2017-08-29T04:18:05.410Z,7.43
2017-08-29T04:20:34.128Z,7.03
2017-08-29T04:23:02.473Z,5.70
2017-08-29T04:25:30.882Z,4.73
2017-08-29T04:27:59.648Z,6.13
2017-08-29T04:30:28.023Z,10.33
2017-08-29T04:32:56.353Z,6.70
2017-08-29T04:35:24.780Z,7.50
2017-08-29T04:37:53.171Z,4.90
2017-08-29T04:40:21.640Z,8.07
2017-08-29T04:42:50.227Z,4.03
2017-08-29T04:45:18.617Z,5.67
2017-08-29T04:47:46.940Z,3.90
2017-08-29T04:50:15.422Z,6.93
2017-08-29T04:52:43.756Z,7.13
2017-08-29T04:55:12.112Z,4.57
2017-08-29T04:57:40.546Z,6.33
2017-08-29T05:00:08.915Z,4.30
2017-08-29T05:02:37.291Z,9.47
2017-08-29T05:05:05.877Z,5.93
2017-08-29T05:07:34.235Z,5.80
2017-08-29T05:10:02.576Z,15.70
2017-08-29T05:12:30.923Z,7.13
2017-08-29T05:14:59.402Z,8.30
2017-08-29T05:17:27.738Z,4.43
2017-08-29T05:19:56.507Z,10.90
2017-08-29T05:22:24.892Z,5.80
2017-08-29T05:24:53.245Z,12.57
2017-08-29T05:27:21.927Z,7.67
2017-08-29T05:29:50.246Z,7.80
2017-08-29T05:32:18.757Z,12.87
2017-08-29T05:34:47.433Z,6.23
2017-08-29T05:37:15.794Z,11.77
2017-08-29T05:39:44.122Z,7.83
2017-08-29T05:42:12.657Z,6.73
2017-08-29T05:44:41.004Z,4.40
2017-08-29T05:47:09.342Z,7.93
2017-08-29T05:49:37.991Z,15.47
2017-08-29T05:52:06.323Z,8.13
2017-08-29T05:54:34.632Z,14.10
2017-08-29T05:57:03.149Z,10.27
2017-08-29T05:59:31.525Z,27.23
2017-08-29T06:01:59.853Z,3.93
2017-08-29T06:04:28.754Z,4.70
2017-08-29T06:06:57.268Z,3.50
2017-08-29T06:09:25.601Z,7.07
2017-08-29T06:11:55.227Z,3.57
2017-08-29T06:14:23.708Z,9.50
2017-08-29T06:16:52.258Z,6.47
2017-08-29T06:19:20.897Z,7.83
2017-08-29T06:21:49.309Z,12.50
2017-08-29T06:24:17.645Z,4.17
2017-08-29T06:26:46.162Z,10.70
2017-08-29T06:29:14.549Z,12.47
2017-08-29T06:31:42.878Z,3.00
2017-08-29T06:34:11.528Z,10.73
2017-08-29T06:36:39.839Z,6.90
2017-08-29T06:39:08.167Z,4.30
2017-08-29T06:41:40.291Z,9.80
2017-08-29T06:44:09.489Z,12.80
2017-08-29T06:46:37.832Z,6.33
2017-08-29T06:49:06.240Z,6.40
2017-08-29T06:51:34.573Z,5.10
2017-08-29T06:54:02.976Z,28.90
2017-08-29T06:56:31.533Z,2.50
2017-08-29T06:59:00.034Z,20.27
2017-08-29T07:01:28.342Z,7.83
2017-08-29T07:03:56.987Z,6.20
2017-08-29T07:06:25.388Z,5.33
2017-08-29T07:08:53.759Z,8.50
2017-08-29T07:11:22.595Z,6.27
2017-08-29T07:13:51.057Z,14.90
2017-08-29T07:16:19.429Z,16.13
2017-08-29T07:18:48.319Z,17.50
2017-08-29T07:21:16.649Z,7.87
2017-08-29T07:23:45.021Z,5.73
2017-08-29T07:26:13.770Z,10.30
2017-08-29T07:28:42.090Z,7.57
2017-08-29T07:31:10.421Z,19.00
2017-08-29T07:33:41.650Z,6.40
2017-08-29T07:36:11.969Z,4.60
2017-08-29T07:38:40.313Z,5.67
2017-08-29T07:41:08.694Z,11.00
2017-08-29T07:43:37.050Z,5.73
2017-08-29T07:46:05.383Z,8.50
2017-08-29T07:48:34.574Z,6.70
2017-08-29T07:51:02.885Z,6.73
2017-08-29T07:53:31.265Z,7.63
2017-08-29T07:55:59.897Z,5.20
2017-08-29T07:58:29.014Z,12.17
2017-08-29T08:00:57.349Z,5.30
2017-08-29T08:03:25.873Z,7.00
2017-08-29T08:05:54.221Z,5.50
2017-08-29T08:08:22.566Z,7.43
2017-08-29T08:10:51.185Z,8.60
2017-08-29T08:13:21.306Z,5.20
2017-08-29T08:15:50.548Z,9.00
2017-08-29T08:18:19.047Z,4.00
2017-08-29T08:20:47.345Z,9.13
2017-08-29T08:23:15.689Z,9.10
2017-08-29T08:25:44.059Z,8.43
2017-08-29T08:28:12.381Z,8.80
2017-08-29T08:30:40.710Z,5.60
2017-08-29T08:33:09.199Z,9.33
2017-08-29T08:35:37.517Z,10.70
2017-08-29T08:38:05.849Z,7.90
2017-08-29T08:40:34.361Z,8.30
2017-08-29T08:43:02.695Z,4.00
2017-08-29T08:45:31.027Z,11.20
2017-08-29T08:47:59.508Z,6.47
2017-08-29T08:50:27.825Z,4.63
2017-08-29T08:52:56.199Z,6.43
2017-08-29T08:55:25.294Z,8.23
2017-08-29T08:57:53.671Z,10.87
2017-08-29T09:00:23.589Z,4.17
2017-08-29T09:02:52.437Z,6.80
2017-08-29T09:05:21.675Z,5.53
2017-08-29T09:07:50.036Z,13.13
2017-08-29T09:10:18.616Z,7.30
2017-08-29T09:12:46.937Z,5.27
2017-08-29T09:15:16.221Z,10.73
2017-08-29T09:17:44.724Z,7.43
2017-08-29T09:20:13.038Z,10.53
2017-08-29T09:22:43.061Z,6.80
2017-08-29T09:25:12.297Z,7.40
2017-08-29T09:27:40.660Z,9.07
2017-08-29T09:30:08.966Z,9.80
2017-08-29T09:32:37.688Z,4.67
2017-08-29T09:35:06.008Z,4.07
2017-08-29T09:37:35.081Z,6.73
2017-08-29T09:40:04.354Z,6.13
2017-08-29T09:42:32.685Z,5.90
2017-08-29T09:45:01.037Z,4.73
2017-08-29T09:47:29.544Z,7.37
2017-08-29T09:49:57.912Z,12.63
2017-08-29T09:52:26.237Z,8.30
2017-08-29T09:54:54.774Z,10.10
2017-08-29T09:57:23.359Z,17.93
2017-08-29T09:59:51.735Z,8.50
2017-08-29T10:02:20.452Z,9.93
2017-08-29T10:04:48.770Z,8.37
2017-08-29T10:07:17.074Z,7.60
2017-08-29T10:09:46.505Z,7.40
2017-08-29T10:12:14.837Z,7.70
2017-08-29T10:14:43.141Z,7.70
2017-08-29T10:17:11.586Z,8.23
2017-08-29T10:19:39.916Z,7.13
2017-08-29T10:22:08.480Z,6.23
2017-08-29T10:24:38.111Z,7.03
2017-08-29T10:27:06.445Z,5.27
2017-08-29T10:29:34.763Z,5.07
2017-08-29T10:32:03.246Z,4.40
2017-08-29T10:34:31.673Z,5.63
2017-08-29T10:37:01.178Z,10.17
2017-08-29T10:39:29.780Z,6.27
2017-08-29T10:41:58.125Z,4.40
2017-08-29T10:44:26.445Z,5.03
2017-08-29T10:46:55.545Z,5.13
2017-08-29T10:49:23.981Z,9.70
2017-08-29T10:51:52.369Z,12.30
2017-08-29T10:54:22.802Z,9.33
2017-08-29T10:56:51.165Z,6.80
2017-08-29T10:59:19.481Z,6.67
2017-08-29T11:01:48.161Z,5.03
2017-08-29T11:04:16.524Z,4.70
2017-08-29T11:06:44.857Z,7.20
2017-08-29T11:09:13.349Z,7.87
2017-08-29T11:11:41.732Z,5.23
2017-08-29T11:14:10.705Z,5.57
2017-08-29T11:16:39.254Z,7.27
2017-08-29T11:19:07.585Z,6.83
2017-08-29T11:21:35.897Z,14.70
2017-08-29T11:24:04.450Z,7.90
2017-08-29T11:26:32.805Z,6.30
2017-08-29T11:29:01.181Z,7.53
2017-08-29T11:31:29.893Z,6.00
2017-08-29T11:33:58.217Z,10.27
2017-08-29T11:36:26.680Z,11.07
2017-08-29T11:38:55.376Z,9.63
2017-08-29T11:41:23.971Z,12.43
2017-08-29T11:43:52.437Z,9.20
2017-08-29T11:46:20.933Z,10.03
2017-08-29T11:48:49.332Z,16.77
2017-08-29T11:51:17.653Z,9.50
2017-08-29T11:53:46.194Z,15.40
2017-08-29T11:56:14.536Z,10.10
2017-08-29T11:58:42.885Z,12.93
2017-08-29T12:01:11.453Z,14.10
2017-08-29T12:03:39.779Z,10.37
2017-08-29T12:06:08.176Z,10.80
2017-08-29T12:08:36.537Z,20.53
2017-08-29T12:11:04.941Z,18.73
2017-08-29T12:13:33.264Z,16.03
2017-08-29T12:16:01.900Z,18.20
2017-08-29T12:18:30.284Z,12.03
2017-08-29T12:20:58.663Z,10.30
2017-08-29T12:23:28.088Z,21.80
2017-08-29T12:25:56.449Z,13.67
2017-08-29T12:28:25.329Z,12.30
2017-08-29T12:30:54.061Z,20.50
2017-08-29T12:33:22.409Z,17.00
2017-08-29T12:35:50.771Z,16.60
2017-08-29T12:38:19.341Z,14.57
2017-08-29T12:40:47.677Z,12.17
2017-08-29T12:43:15.987Z,11.10
2017-08-29T12:45:44.945Z,17.33
2017-08-29T12:48:13.285Z,15.03
2017-08-29T12:50:42.678Z,16.83
2017-08-29T12:53:11.267Z,14.27
2017-08-29T12:55:39.609Z,17.00
2017-08-29T12:58:07.957Z,21.53
2017-08-29T13:00:36.400Z,14.93
2017-08-29T13:03:04.716Z,19.03
2017-08-29T13:05:33.062Z,11.73
2017-08-29T13:08:01.648Z,13.13
2017-08-29T13:10:29.973Z,11.53
2017-08-29T13:12:58.450Z,13.27
2017-08-29T13:15:27.809Z,12.33
2017-08-29T13:17:58.705Z,16.53
2017-08-29T13:20:27.784Z,19.83
2017-08-29T13:22:56.566Z,9.63
2017-08-29T13:25:24.992Z,8.70
2017-08-29T13:27:53.538Z,11.20
2017-08-29T13:30:22.200Z,10.20
2017-08-29T13:32:50.554Z,14.90
2017-08-29T13:35:18.884Z,9.23
2017-08-29T13:37:47.480Z,8.63
2017-08-29T13:40:15.870Z,14.30
2017-08-29T13:42:44.179Z,27.47
2017-08-29T13:45:12.940Z,28.13
2017-08-29T13:47:41.262Z,9.40
2017-08-29T13:50:09.597Z,32.33
2017-08-29T13:52:38.124Z,15.03
2017-08-29T13:55:07.465Z,20.97
2017-08-29T13:57:35.773Z,14.00
2017-08-29T14:00:04.225Z,12.20
2017-08-29T14:02:32.590Z,15.77
2017-08-29T14:05:00.919Z,15.60
2017-08-29T14:07:29.417Z,16.97
2017-08-29T14:09:57.774Z,22.93
2017-08-29T14:12:26.342Z,21.83
2017-08-29T14:14:55.157Z,16.77
2017-08-29T14:17:23.533Z,15.83
2017-08-29T14:19:51.870Z,12.20
2017-08-29T14:22:20.656Z,15.63
2017-08-29T14:24:48.977Z,15.23
2017-08-29T14:27:17.309Z,16.00
2017-08-29T14:29:45.944Z,11.10
2017-08-29T14:32:14.659Z,12.00
2017-08-29T14:34:44.109Z,14.07
2017-08-29T14:37:12.742Z,11.50
2017-08-29T14:39:41.904Z,12.70
2017-08-29T14:42:11.250Z,19.00
2017-08-29T14:44:39.692Z,12.00
2017-08-29T14:50:16.364Z,16.90
2017-08-29T14:52:45.663Z,15.53
2017-08-29T14:55:13.979Z,18.13
2017-08-29T14:57:42.583Z,22.60
2017-08-29T15:00:10.930Z,14.93
2017-08-29T15:02:39.256Z,19.43
2017-08-29T15:05:07.878Z,18.20
2017-08-29T15:07:36.193Z,31.50
2017-08-29T15:10:04.552Z,18.00
2017-08-29T15:12:33.036Z,13.50
2017-08-29T15:15:01.548Z,15.07
2017-08-29T15:17:29.872Z,13.03
2017-08-29T15:19:58.450Z,15.10
2017-08-29T15:22:26.808Z,16.70
2017-08-29T15:24:55.147Z,16.23
2017-08-29T15:27:23.729Z,21.17
2017-08-29T15:29:52.185Z,16.60
2017-08-29T15:32:21.453Z,18.23
2017-08-29T15:34:50.682Z,14.97
2017-08-29T15:37:19.016Z,16.70
2017-08-29T15:39:47.367Z,20.43
2017-08-29T15:42:15.861Z,10.07
2017-08-29T15:44:44.198Z,11.60
2017-08-29T15:47:12.514Z,12.73
2017-08-29T15:49:41.175Z,9.53
2017-08-29T15:52:10.404Z,13.57
2017-08-29T15:54:38.735Z,13.30
2017-08-29T15:57:07.482Z,14.03
2017-08-29T15:59:35.798Z,11.50
2017-08-29T17:24:04.545Z,15.63
2017-08-29T17:26:34.303Z,8.93
2017-08-29T17:29:02.676Z,12.53
2017-08-29T17:31:32.248Z,14.63
2017-08-29T17:34:00.831Z,19.00
2017-08-29T17:36:30.052Z,11.73
2017-08-29T17:38:58.637Z,16.37
2017-08-29T17:41:28.451Z,16.37
2017-08-29T17:43:57.035Z,11.40
2017-08-29T17:46:25.598Z,28.40
2017-08-29T17:48:54.017Z,16.53
2017-08-29T17:51:23.638Z,14.23
2017-08-29T17:53:52.744Z,19.90
2017-08-29T17:56:21.144Z,13.00
2017-08-29T17:58:49.515Z,14.80
2017-08-29T18:01:18.093Z,18.47
2017-08-29T18:03:46.524Z,16.77
2017-08-29T18:06:14.920Z,14.33
2017-08-29T18:08:43.875Z,15.93
2017-08-29T18:11:12.226Z,17.23
2017-08-29T18:13:40.630Z,22.30
2017-08-29T18:16:10.352Z,17.17
2017-08-29T18:18:39.102Z,14.30
2017-08-29T18:21:07.543Z,18.33
2017-08-29T18:23:36.234Z,17.33
2017-08-29T18:26:04.681Z,18.80
2017-08-29T18:28:35.696Z,19.23
2017-08-29T18:31:04.431Z,35.13
2017-08-29T18:33:32.782Z,32.23
2017-08-29T18:36:01.181Z,34.40
2017-08-29T18:38:30.738Z,32.60
2017-08-29T18:40:59.256Z,29.63
2017-08-29T18:43:28.047Z,31.93
2017-08-29T18:45:56.816Z,37.00
2017-08-29T18:48:25.312Z,42.07
2017-08-29T18:50:53.805Z,39.97
2017-08-29T18:53:23.108Z,46.07
2017-08-29T18:55:51.540Z,50.07
2017-08-29T18:58:20.073Z,42.27
2017-08-29T19:00:48.858Z,49.57
2017-08-29T19:03:17.189Z,48.80
2017-08-29T19:05:45.563Z,49.33
2017-08-29T19:08:14.237Z,53.50
2017-08-29T19:10:42.581Z,44.13
2017-08-29T19:13:10.967Z,48.77
2017-08-29T19:15:39.433Z,49.33
2017-08-29T19:18:07.776Z,44.93
2017-08-29T19:20:36.146Z,55.73
2017-08-29T19:23:04.519Z,62.03
2017-08-29T19:25:33.377Z,64.13
2017-08-29T19:28:01.880Z,49.37
2017-08-29T19:30:31.463Z,48.17
2017-08-29T19:32:59.833Z,49.90
2017-08-29T19:35:28.350Z,54.90
2017-08-29T19:37:57.793Z,49.10
2017-08-29T19:40:26.219Z,53.17
2017-08-29T19:42:54.711Z,66.90
2017-08-29T19:45:23.432Z,64.80
2017-08-29T19:47:51.789Z,55.80
2017-08-29T19:50:20.168Z,64.73
2017-08-29T19:52:49.589Z,49.00
2017-08-29T19:55:17.953Z,61.77
2017-08-29T19:57:46.277Z,50.33
2017-08-29T20:00:14.817Z,52.30
2017-08-29T20:02:43.143Z,56.10
2017-08-29T20:05:11.478Z,59.73
2017-08-29T20:07:40.943Z,55.93
2017-08-29T20:10:09.294Z,51.57
2017-08-29T20:12:37.670Z,51.60
2017-08-29T20:15:06.307Z,50.57
2017-08-29T20:17:34.663Z,47.70
2017-08-29T20:20:03.082Z,51.30
2017-08-29T20:22:31.647Z,50.30
2017-08-29T20:25:00.115Z,59.67
2017-08-29T20:27:28.585Z,48.17
2017-08-29T20:29:57.423Z,54.27
2017-08-29T20:32:26.620Z,45.80
2017-08-29T20:34:55.308Z,47.17
2017-08-29T20:37:24.025Z,59.77
2017-08-29T20:39:52.875Z,53.20
2017-08-29T20:42:21.320Z,43.97
2017-08-29T20:44:50.521Z,44.43
2017-08-29T20:47:18.903Z,50.77
2017-08-29T20:49:47.344Z,39.47
2017-08-29T20:52:16.613Z,46.57
2017-08-29T20:54:44.982Z,41.40
2017-08-29T20:57:13.420Z,45.83
2017-08-29T20:59:42.707Z,53.03
2017-08-29T21:02:12.020Z,45.40
2017-08-29T21:04:40.336Z,42.70
2017-08-29T21:07:10.078Z,44.03
2017-08-29T21:09:38.430Z,53.40
2017-08-29T21:12:06.752Z,49.53
2017-08-29T21:14:35.414Z,44.00
2017-08-29T21:17:03.742Z,39.43
2017-08-29T21:19:33.060Z,42.73
2017-08-29T21:22:01.750Z,39.03
2017-08-29T21:24:30.184Z,47.90
2017-08-29T21:26:58.628Z,54.33
2017-08-29T21:29:27.364Z,50.40
2017-08-29T21:31:56.790Z,52.57
2017-08-29T21:34:25.298Z,56.73
2017-08-29T21:36:54.171Z,54.43
2017-08-29T21:39:22.723Z,60.87
2017-08-29T21:41:51.161Z,62.43
2017-08-29T21:44:19.642Z,62.80
2017-08-29T21:46:48.021Z,63.60
2017-08-29T21:49:16.379Z,72.23
2017-08-29T21:51:45.257Z,60.97
2017-08-29T21:54:13.574Z,62.87
2017-08-29T21:56:41.917Z,67.77
2017-08-29T21:59:10.781Z,55.30
2017-08-29T22:01:39.182Z,61.33
2017-08-29T22:04:07.580Z,68.53
2017-08-29T22:06:36.300Z,67.30
2017-08-29T22:09:04.730Z,58.67
2017-08-29T22:11:33.076Z,61.00
2017-08-29T22:14:01.661Z,61.20
2017-08-29T22:16:30.101Z,65.00
2017-08-29T22:18:59.240Z,62.30
2017-08-29T22:21:28.688Z,62.27
2017-08-29T22:23:57.156Z,57.53
2017-08-29T22:26:25.566Z,64.27
2017-08-29T22:28:54.114Z,65.53
2017-08-29T22:31:22.763Z,62.80
2017-08-29T22:33:51.296Z,65.23
2017-08-29T22:36:19.802Z,67.57
2017-08-29T22:38:48.129Z,69.90
2017-08-29T22:41:16.505Z,64.50
2017-08-29T22:43:45.225Z,69.07
2017-08-29T22:46:13.677Z,66.90
2017-08-29T22:48:42.035Z,58.73
2017-08-29T22:51:10.895Z,65.17
2017-08-29T22:53:39.286Z,67.63
2017-08-29T22:56:08.203Z,70.93
2017-08-29T22:58:36.676Z,73.70
2017-08-29T23:01:05.372Z,68.77
2017-08-29T23:03:33.728Z,73.47
2017-08-29T23:06:02.533Z,78.60
2017-08-29T23:08:30.913Z,77.77
2017-08-29T23:10:59.253Z,87.33
2017-08-29T23:13:29.223Z,93.23
2017-08-29T23:15:57.731Z,92.83
2017-08-29T23:18:26.198Z,91.00
2017-08-29T23:20:54.929Z,101.90
2017-08-29T23:23:23.313Z,96.70
2017-08-29T23:25:52.642Z,108.67
2017-08-29T23:28:22.907Z,99.23
2017-08-29T23:30:51.290Z,94.07
2017-08-29T23:33:19.689Z,95.47
2017-08-29T23:35:48.385Z,88.23
2017-08-29T23:38:16.721Z,98.80
2017-08-29T23:40:45.800Z,96.17
2017-08-29T23:43:14.501Z,94.50
2017-08-29T23:45:42.857Z,100.10
2017-08-29T23:48:11.223Z,96.33
2017-08-29T23:50:39.602Z,102.17
2017-08-29T23:53:07.972Z,93.80
2017-08-29T23:55:36.297Z,95.30
2017-08-29T23:58:04.990Z,90.77
